Time;durP1;ratioP1;P1;durP2;ratioP2;P2;SDS_P1;SDS_P2;PMS_P1;PMS_P2;Temp;Humidity;BMP_temperature;BMP_pressure;BME280_temperature;BME280_humidity;BME280_pressure;Samples;Min_cycle;Max_cycle;Signal;HPM_P1;HPM_P2
2024/01/16 00:00:00;;;;;;;1999.90;999.90;;;3.30;99.90;;;;;;5071678;28;20395;-75
2024/01/16 00:02:26;;;;;;;1999.90;999.90;;;3.30;99.90;;;;;;5072571;28;20025;-75
2024/01/16 00:04:51;;;;;;;1999.90;999.90;;;3.20;99.90;;;;;;5073122;28;20056;-75
2024/01/16 00:07:17;;;;;;;1999.90;999.90;;;3.30;99.90;;;;;;5077117;28;20029;-75
2024/01/16 00:09:43;;;;;;;1999.90;999.90;;;3.10;99.90;;;;;;5081565;28;20024;-75
2024/01/16 00:12:09;;;;;;;1999.90;999.90;;;3.10;99.90;;;;;;5073461;28;20480;-75
2024/01/16 00:14:36;;;;;;;1999.90;999.90;;;3.10;99.90;;;;;;5073100;28;20078;-75
2024/01/16 00:17:02;;;;;;;1999.90;999.90;;;3.00;99.90;;;;;;5073289;28;20035;-75
2024/01/16 00:19:27;;;;;;;1999.90;999.90;;;2.90;99.90;;;;;;5073111;28;20115;-74
2024/01/16 00:21:53;;;;;;;1999.90;999.90;;;2.90;99.90;;;;;;5054683;28;20059;-75
2024/01/16 00:24:19;;;;;;;1999.90;999.90;;;2.90;99.90;;;;;;5072990;28;20077;-75
2024/01/16 00:26:44;;;;;;;1999.90;999.90;;;2.80;99.90;;;;;;5072699;28;20020;-74
2024/01/16 00:29:12;;;;;;;1999.90;999.90;;;2.80;99.90;;;;;;5072844;28;20036;-75
2024/01/16 00:31:38;;;;;;;1999.90;999.90;;;2.80;99.90;;;;;;5072743;28;20046;-75
2024/01/16 00:34:04;;;;;;;1999.90;999.90;;;2.90;99.90;;;;;;5072845;28;20048;-75
2024/01/16 00:36:30;;;;;;;1999.90;999.90;;;2.80;99.90;;;;;;5072701;28;20487;-75
2024/01/16 00:38:56;;;;;;;1999.90;999.90;;;2.80;99.90;;;;;;5072993;28;20542;-74
2024/01/16 00:41:22;;;;;;;1999.90;999.90;;;2.80;99.90;;;;;;5073203;28;20146;-74
2024/01/16 00:43:47;;;;;;;1999.90;999.90;;;2.80;99.90;;;;;;5072356;28;20095;-75
2024/01/16 00:46:13;;;;;;;1999.90;999.90;;;2.90;99.90;;;;;;5072453;28;20054;-75
2024/01/16 00:48:39;;;;;;;1999.90;999.90;;;2.80;99.90;;;;;;5072300;28;20020;-75
2024/01/16 00:51:05;;;;;;;1999.90;999.90;;;2.80;99.90;;;;;;5072475;28;20024;-74
2024/01/16 00:53:30;;;;;;;1999.90;999.90;;;2.90;99.90;;;;;;5073064;28;20029;-75
2024/01/16 00:55:56;;;;;;;1999.90;999.90;;;2.80;99.90;;;;;;5072924;28;20050;-74
2024/01/16 00:58:22;;;;;;;1999.90;999.90;;;2.90;99.90;;;;;;5072346;28;20032;-75
2024/01/16 01:00:48;;;;;;;1999.90;999.90;;;2.80;99.90;;;;;;5071217;28;20028;-74
2024/01/16 01:03:14;;;;;;;1999.90;999.90;;;2.80;99.90;;;;;;5072421;28;20021;-75
2024/01/16 01:05:39;;;;;;;1999.90;999.90;;;2.90;99.90;;;;;;5072537;28;20561;-75
2024/01/16 01:08:05;;;;;;;1999.90;999.90;;;2.90;99.90;;;;;;5082716;28;20039;-75
2024/01/16 01:10:31;;;;;;;1999.90;999.90;;;2.90;99.90;;;;;;5074463;28;20064;-75
2024/01/16 01:12:57;;;;;;;1999.90;999.90;;;2.90;99.90;;;;;;5072291;28;20062;-74
2024/01/16 01:15:22;;;;;;;1999.90;999.90;;;3.00;99.90;;;;;;5072389;28;20107;-75
2024/01/16 01:17:49;;;;;;;1999.90;999.90;;;2.90;99.90;;;;;;5072408;28;20035;-75
2024/01/16 01:20:15;;;;;;;1999.90;999.90;;;3.00;99.90;;;;;;5072353;28;20032;-75
2024/01/16 01:22:40;;;;;;;1999.90;999.90;;;3.00;99.90;;;;;;5072447;28;20032;-75
2024/01/16 01:25:07;;;;;;;1999.90;999.90;;;3.00;99.90;;;;;;5072100;28;20472;-75
2024/01/16 01:27:33;;;;;;;1999.90;999.90;;;3.00;99.90;;;;;;5054464;28;20025;-74
2024/01/16 01:29:58;;;;;;;1999.90;999.90;;;2.90;99.90;;;;;;5072148;28;20040;-73
2024/01/16 01:32:24;;;;;;;1999.90;999.90;;;2.90;99.90;;;;;;5072149;28;20021;-75
2024/01/16 01:34:49;;;;;;;1999.90;999.90;;;3.00;99.90;;;;;;5072397;28;20024;-75
2024/01/16 01:37:15;;;;;;;1999.90;999.90;;;2.90;99.90;;;;;;5072231;28;20074;-75
2024/01/16 01:39:41;;;;;;;1999.90;999.90;;;2.90;99.90;;;;;;5072216;28;20471;-75
2024/01/16 01:42:07;;;;;;;1999.90;999.90;;;2.90;99.90;;;;;;5073339;28;20043;-75
2024/01/16 01:44:32;;;;;;;1999.90;999.90;;;2.90;99.90;;;;;;5076077;28;20021;-75
2024/01/16 01:46:58;;;;;;;1999.90;999.90;;;2.80;99.90;;;;;;5075781;28;20483;-73
2024/01/16 01:49:25;;;;;;;1999.90;999.90;;;2.90;99.90;;;;;;5075735;28;20020;-75
2024/01/16 01:51:52;;;;;;;1999.90;999.90;;;2.90;99.90;;;;;;5076281;28;20522;-74
2024/01/16 01:54:19;;;;;;;1999.90;999.90;;;2.90;99.90;;;;;;5076000;28;20467;-75
2024/01/16 01:56:47;;;;;;;1999.90;999.90;;;2.80;99.90;;;;;;5076117;28;20050;-75
2024/01/16 01:59:14;;;;;;;1999.90;999.90;;;2.80;99.90;;;;;;5075533;28;20055;-75
2024/01/16 02:01:41;;;;;;;1999.90;999.90;;;2.80;99.90;;;;;;5075165;28;20479;-74
2024/01/16 02:04:06;;;;;;;1999.90;999.90;;;2.80;99.90;;;;;;5057436;28;20404;-75
2024/01/16 02:06:32;;;;;;;1999.90;999.90;;;2.80;99.90;;;;;;5059382;28;20038;-74
2024/01/16 02:08:59;;;;;;;1999.90;999.90;;;2.70;99.90;;;;;;5085983;28;20111;-75
2024/01/16 02:11:25;;;;;;;1999.90;999.90;;;2.70;99.90;;;;;;5075455;28;20028;-75
2024/01/16 02:13:50;;;;;;;1999.90;999.90;;;2.70;99.90;;;;;;5075588;28;20029;-75
2024/01/16 02:16:20;;;;;;;1999.90;999.90;;;2.60;99.90;;;;;;5075391;28;20044;-75
2024/01/16 02:18:46;;;;;;;1999.90;999.90;;;2.70;99.90;;;;;;5075302;28;20480;-75
2024/01/16 02:21:15;;;;;;;1999.90;999.90;;;2.60;99.90;;;;;;5075251;28;20020;-75
2024/01/16 02:23:41;;;;;;;1999.90;999.90;;;2.60;99.90;;;;;;5075155;28;20035;-74
2024/01/16 02:26:07;;;;;;;1999.90;999.90;;;2.60;99.90;;;;;;5074915;28;20399;-75
2024/01/16 02:28:32;;;;;;;1999.90;999.90;;;2.60;99.90;;;;;;5075615;28;20029;-74
2024/01/16 02:30:58;;;;;;;1999.90;999.90;;;2.60;99.90;;;;;;5075063;28;20024;-74
2024/01/16 02:33:23;;;;;;;1999.90;999.90;;;2.70;99.90;;;;;;5075000;28;20074;-75
2024/01/16 02:35:49;;;;;;;1999.90;999.90;;;2.60;99.90;;;;;;5074987;28;20033;-74
2024/01/16 02:38:15;;;;;;;1999.90;999.90;;;2.60;99.90;;;;;;5074922;28;20470;-74
2024/01/16 02:40:40;;;;;;;1999.90;999.90;;;2.60;99.90;;;;;;5075161;28;20052;-74
2024/01/16 02:43:07;;;;;;;1999.90;999.90;;;2.60;99.90;;;;;;5075015;28;20043;-73
2024/01/16 02:45:32;;;;;;;1999.90;999.90;;;2.70;99.90;;;;;;5075004;28;20035;-74
2024/01/16 02:47:58;;;;;;;1999.90;999.90;;;2.60;99.90;;;;;;5074915;28;20028;-73
2024/01/16 02:50:24;;;;;;;1999.90;999.90;;;2.60;99.90;;;;;;5074430;28;20044;-73
2024/01/16 02:52:49;;;;;;;1999.90;999.90;;;2.60;99.90;;;;;;5074799;28;20025;-73
2024/01/16 02:55:15;;;;;;;1999.90;999.90;;;2.70;99.90;;;;;;5074996;28;20020;-73
2024/01/16 02:57:41;;;;;;;1999.90;999.90;;;2.60;99.90;;;;;;5074538;28;20032;-73
2024/01/16 03:00:08;;;;;;;1999.90;999.90;;;2.60;99.90;;;;;;5074397;28;20024;-73
2024/01/16 03:02:33;;;;;;;1999.90;999.90;;;2.70;99.90;;;;;;5074341;28;20031;-73
2024/01/16 03:04:59;;;;;;;1999.90;999.90;;;2.70;99.90;;;;;;5056518;28;20057;-73
2024/01/16 03:07:25;;;;;;;1999.90;999.90;;;2.70;99.90;;;;;;5078839;28;20033;-74
2024/01/16 03:09:51;;;;;;;1999.90;999.90;;;2.70;99.90;;;;;;5082380;28;20025;-73
2024/01/16 03:12:17;;;;;;;1999.90;999.90;;;2.70;99.90;;;;;;5074199;28;20020;-73
2024/01/16 03:14:42;;;;;;;1999.90;999.90;;;2.70;99.90;;;;;;5073604;28;20025;-75
2024/01/16 03:17:08;;;;;;;1999.90;999.90;;;2.70;99.90;;;;;;5074251;28;20024;-73
2024/01/16 03:19:34;;;;;;;1999.90;999.90;;;2.70;99.90;;;;;;5074260;28;20074;-73
2024/01/16 03:21:59;;;;;;;1999.90;999.90;;;2.70;99.90;;;;;;5074244;28;20043;-73
2024/01/16 03:24:26;;;;;;;1999.90;999.90;;;2.80;99.90;;;;;;5074122;28;20434;-75
2024/01/16 03:26:51;;;;;;;1999.90;999.90;;;2.80;99.90;;;;;;5071095;28;20499;-73
2024/01/16 03:29:17;;;;;;;1999.90;999.90;;;2.80;99.90;;;;;;5074104;28;20031;-73
2024/01/16 03:31:43;;;;;;;1999.90;999.90;;;2.80;99.90;;;;;;5073952;28;20033;-73
2024/01/16 03:34:10;;;;;;;1999.90;999.90;;;2.80;99.90;;;;;;5073952;28;20050;-73
2024/01/16 03:36:36;;;;;;;1999.90;999.90;;;2.80;99.90;;;;;;5073988;28;20025;-73
2024/01/16 03:39:02;;;;;;;1999.90;999.90;;;2.70;99.90;;;;;;5073898;28;20118;-73
2024/01/16 03:41:27;;;;;;;1999.90;999.90;;;2.80;99.90;;;;;;5073956;28;20135;-73
2024/01/16 03:43:56;;;;;;;1999.90;999.90;;;2.80;99.90;;;;;;5074002;28;20017;-73
2024/01/16 03:46:22;;;;;;;1999.90;999.90;;;2.70;99.90;;;;;;5073522;28;20111;-75
2024/01/16 03:48:48;;;;;;;1999.90;999.90;;;2.70;99.90;;;;;;5073666;28;20013;-73
2024/01/16 03:51:15;;;;;;;1999.90;999.90;;;2.70;99.90;;;;;;5055741;28;20016;-73
2024/01/16 03:53:41;;;;;;;1999.90;999.90;;;2.70;99.90;;;;;;5073394;28;20029;-73
2024/01/16 03:56:09;;;;;;;1999.90;999.90;;;2.70;99.90;;;;;;5073513;28;20024;-74
2024/01/16 03:58:35;;;;;;;1999.90;999.90;;;2.70;99.90;;;;;;5072706;28;20020;-73
2024/01/16 04:01:01;;;;;;;1999.90;999.90;;;2.70;99.90;;;;;;5072542;28;20035;-73
2024/01/16 04:03:27;;;;;;;1999.90;999.90;;;2.70;99.90;;;;;;5074007;28;20028;-73
2024/01/16 04:05:52;;;;;;;1999.90;999.90;;;2.60;99.90;;;;;;5071768;28;20532;-73
2024/01/16 04:08:18;;;;;;;1999.90;999.90;;;2.60;99.90;;;;;;5084689;28;20107;-73
2024/01/16 04:10:43;;;;;;;1999.90;999.90;;;2.60;99.90;;;;;;5055729;28;20078;-73
2024/01/16 04:13:09;;;;;;;1999.90;999.90;;;2.60;99.90;;;;;;5073249;28;20028;-73
2024/01/16 04:15:38;;;;;;;1999.90;999.90;;;2.50;99.90;;;;;;5073109;28;20401;-73
2024/01/16 04:18:04;;;;;;;1999.90;999.90;;;2.50;99.90;;;;;;5073131;28;20012;-73
2024/01/16 04:20:30;;;;;;;1999.90;999.90;;;2.50;99.90;;;;;;5073167;28;20044;-73
2024/01/16 04:22:56;;;;;;;1999.90;999.90;;;2.60;99.90;;;;;;5072815;28;20035;-73
2024/01/16 04:25:22;;;;;;;1999.90;999.90;;;2.50;99.90;;;;;;5072943;28;20403;-74
2024/01/16 04:27:47;;;;;;;1999.90;999.90;;;2.50;99.90;;;;;;5073024;28;20027;-73
2024/01/16 04:30:13;;;;;;;1999.90;999.90;;;2.50;99.90;;;;;;5072818;28;20107;-75
2024/01/16 04:32:39;;;;;;;1999.90;999.90;;;2.50;99.90;;;;;;5054932;28;20024;-73
2024/01/16 04:35:04;;;;;;;1999.90;999.90;;;2.40;99.90;;;;;;5072940;28;20059;-75
2024/01/16 04:37:30;;;;;;;1999.90;999.90;;;2.40;99.90;;;;;;5072926;28;20024;-73
2024/01/16 04:39:57;;;;;;;1999.90;999.90;;;2.40;99.90;;;;;;5072763;28;20115;-73
2024/01/16 04:42:23;;;;;;;1999.90;999.90;;;2.40;99.90;;;;;;5072767;28;20024;-74
2024/01/16 04:44:49;;;;;;;1999.90;999.90;;;2.40;99.90;;;;;;5072549;28;20020;-75
2024/01/16 04:47:14;;;;;;;1999.90;999.90;;;2.40;99.90;;;;;;5072689;28;20054;-73
2024/01/16 04:49:42;;;;;;;1999.90;999.90;;;2.40;99.90;;;;;;5072951;28;20039;-73
2024/01/16 04:52:07;;;;;;;1999.90;999.90;;;2.50;99.90;;;;;;5072659;28;20040;-75
2024/01/16 04:54:33;;;;;;;1999.90;999.90;;;2.50;99.90;;;;;;5072662;28;20071;-73
2024/01/16 04:56:59;;;;;;;1999.90;999.90;;;2.50;99.90;;;;;;5072507;28;20047;-75
2024/01/16 04:59:24;;;;;;;1999.90;999.90;;;2.50;99.90;;;;;;5072423;28;20055;-75
2024/01/16 05:01:51;;;;;;;1999.90;999.90;;;2.50;99.90;;;;;;5072644;28;20039;-73
2024/01/16 05:04:16;;;;;;;1999.90;999.90;;;2.50;99.90;;;;;;5054375;28;20040;-74
2024/01/16 05:06:42;;;;;;;1999.90;999.90;;;2.50;99.90;;;;;;5075045;28;20447;-75
2024/01/16 05:09:09;;;;;;;1999.90;999.90;;;2.50;99.90;;;;;;5081702;28;20483;-75
2024/01/16 05:11:35;;;;;;;1999.90;999.90;;;2.50;99.90;;;;;;5072577;28;20506;-74
2024/01/16 05:14:00;;;;;;;1999.90;999.90;;;2.50;99.90;;;;;;5072524;28;20025;-75
2024/01/16 05:16:27;;;;;;;1999.90;999.90;;;2.40;99.90;;;;;;5072499;28;20035;-75
2024/01/16 05:18:53;;;;;;;1999.90;999.90;;;2.50;99.90;;;;;;5076423;28;20020;-75
2024/01/16 05:21:20;;;;;;;1999.90;999.90;;;2.50;99.90;;;;;;5076506;28;20016;-75
2024/01/16 05:23:45;;;;;;;1999.90;999.90;;;2.50;99.90;;;;;;5076421;28;20020;-74
2024/01/16 05:26:11;;;;;;;1999.90;999.90;;;2.50;99.90;;;;;;5076955;28;20034;-75
2024/01/16 05:28:38;;;;;;;1999.90;999.90;;;2.40;99.90;;;;;;5087055;28;20016;-75
2024/01/16 05:31:04;;;;;;;1999.90;999.90;;;2.50;99.90;;;;;;5076076;28;20508;-74
2024/01/16 05:33:29;;;;;;;1999.90;999.90;;;2.50;99.90;;;;;;5076156;28;20020;-74
2024/01/16 05:35:57;;;;;;;1999.90;999.90;;;2.50;99.90;;;;;;5076208;28;20080;-74
2024/01/16 05:38:22;;;;;;;1999.90;999.90;;;2.50;99.90;;;;;;5076304;28;20028;-75
2024/01/16 05:40:48;;;;;;;1999.90;999.90;;;2.50;99.90;;;;;;5079120;28;20024;-75
2024/01/16 05:43:14;;;;;;;1999.90;999.90;;;2.50;99.90;;;;;;5085455;28;20044;-75
2024/01/16 05:45:40;;;;;;;1999.90;999.90;;;2.60;99.90;;;;;;5075876;28;20029;-74
2024/01/16 05:48:08;;;;;;;1999.90;999.90;;;2.60;99.90;;;;;;5075849;28;20074;-75
2024/01/16 05:50:34;;;;;;;1999.90;999.90;;;2.60;99.90;;;;;;5076184;28;20024;-75
2024/01/16 05:53:00;;;;;;;1999.90;999.90;;;2.60;99.90;;;;;;5076065;28;20020;-74
2024/01/16 05:55:25;;;;;;;1999.90;999.90;;;2.60;99.90;;;;;;5079165;28;20039;-74
2024/01/16 05:57:51;;;;;;;1999.90;999.90;;;2.60;99.90;;;;;;5084631;28;20040;-73
2024/01/16 06:00:18;;;;;;;1999.90;999.90;;;2.60;99.90;;;;;;5075433;28;20032;-76
2024/01/16 06:02:44;;;;;;;1999.90;999.90;;;2.50;99.90;;;;;;5075718;28;20506;-74
2024/01/16 06:05:09;;;;;;;1999.90;999.90;;;2.50;99.90;;;;;;5074967;28;20067;-74
2024/01/16 06:07:35;;;;;;;1999.90;999.90;;;2.50;99.90;;;;;;5077803;28;20495;-74
2024/01/16 06:10:01;;;;;;;1999.90;999.90;;;2.50;99.90;;;;;;5088470;28;20036;-74
2024/01/16 06:12:26;;;;;;;1999.90;999.90;;;2.50;99.90;;;;;;5081558;28;20031;-76
2024/01/16 06:14:52;;;;;;;1999.90;999.90;;;2.50;99.90;;;;;;5057278;28;20031;-74
2024/01/16 06:17:18;;;;;;;1999.90;999.90;;;2.50;99.90;;;;;;5075390;28;20052;-75
2024/01/16 06:19:43;;;;;;;1999.90;999.90;;;2.50;99.90;;;;;;5075294;28;20119;-76
2024/01/16 06:22:09;;;;;;;1999.90;999.90;;;2.50;99.90;;;;;;5073627;28;20025;-74
2024/01/16 06:24:36;;;;;;;1999.90;999.90;;;2.50;99.90;;;;;;5074888;28;20024;-74
2024/01/16 06:27:05;;;;;;;1999.90;999.90;;;2.60;99.90;;;;;;5074627;28;20048;-74
2024/01/16 06:29:31;;;;;;;1999.90;999.90;;;2.60;99.90;;;;;;5072901;28;20391;-74
2024/01/16 06:31:56;;;;;;;1999.90;999.90;;;2.60;99.90;;;;;;5074633;28;20020;-72
2024/01/16 06:34:22;;;;;;;1999.90;999.90;;;2.60;99.90;;;;;;5074503;28;20020;-75
2024/01/16 06:36:47;;;;;;;1999.90;999.90;;;2.60;99.90;;;;;;5074744;28;20035;-74
2024/01/16 06:39:13;;;;;;;1999.90;999.90;;;2.50;99.90;;;;;;5064676;28;20491;-74
2024/01/16 06:41:41;;;;;;;1999.90;999.90;;;2.50;99.90;;;;;;5074536;28;20115;-73
2024/01/16 06:44:06;;;;;;;1999.90;999.90;;;2.50;99.90;;;;;;5082614;28;20027;-74
2024/01/16 06:46:32;;;;;;;1999.90;999.90;;;2.60;99.90;;;;;;5083630;28;20029;-74
2024/01/16 06:48:58;;;;;;;1999.90;999.90;;;2.50;99.90;;;;;;5083760;28;20081;-73
2024/01/16 06:51:23;;;;;;;1999.90;999.90;;;2.60;99.90;;;;;;5087315;28;20024;-74
2024/01/16 06:53:49;;;;;;;1999.90;999.90;;;2.50;99.90;;;;;;5083193;28;20043;-76
2024/01/16 06:56:15;;;;;;;1999.90;999.90;;;2.50;99.90;;;;;;5073536;28;20035;-76
2024/01/16 06:58:40;;;;;;;1999.90;999.90;;;2.50;99.90;;;;;;5081639;28;20624;-76
2024/01/16 07:01:08;;;;;;;1999.90;999.90;;;2.50;99.90;;;;;;5075701;28;20138;-76
2024/01/16 07:03:34;;;;;;;1999.90;999.90;;;2.40;99.90;;;;;;5076814;28;20032;-74
2024/01/16 07:05:59;;;;;;;1999.90;999.90;;;2.40;99.90;;;;;;5074391;28;20029;-76
2024/01/16 07:08:25;;;;;;;1999.90;999.90;;;2.40;99.90;;;;;;5079965;28;20454;-76
2024/01/16 07:10:51;;;;;;;1999.90;999.90;;;2.40;99.90;;;;;;5085539;28;20098;-76
2024/01/16 07:13:16;;;;;;;1999.90;999.90;;;2.40;99.90;;;;;;5074372;28;20078;-76
2024/01/16 07:15:42;;;;;;;1999.90;999.90;;;2.40;99.90;;;;;;5074133;28;20025;-74
2024/01/16 07:18:08;;;;;;;1999.90;999.90;;;2.40;99.90;;;;;;5073295;28;20024;-76
2024/01/16 07:20:33;;;;;;;1999.90;999.90;;;2.50;99.90;;;;;;5069662;28;20055;-76
2024/01/16 07:22:59;;;;;;;1999.90;999.90;;;2.40;99.90;;;;;;5068941;28;20040;-76
2024/01/16 07:25:24;;;;;;;1999.90;999.90;;;2.40;99.90;;;;;;5072585;28;20055;-74
2024/01/16 07:27:50;;;;;;;1999.90;999.90;;;2.50;99.90;;;;;;5072423;28;20043;-74
2024/01/16 07:30:16;;;;;;;1999.90;999.90;;;2.40;99.90;;;;;;5069937;28;20016;-76
2024/01/16 07:32:42;;;;;;;1999.90;999.90;;;2.50;99.90;;;;;;5069983;28;20029;-74
2024/01/16 07:35:08;;;;;;;1999.90;999.90;;;2.40;99.90;;;;;;5072205;28;20024;-74
2024/01/16 07:37:33;;;;;;;1999.90;999.90;;;2.50;99.90;;;;;;5067004;28;20027;-76
2024/01/16 07:39:59;;;;;;;1999.90;999.90;;;2.50;99.90;;;;;;5070821;28;20059;-76
2024/01/16 07:42:24;;;;;;;1999.90;999.90;;;2.50;99.90;;;;;;5069233;28;20028;-74
2024/01/16 07:44:51;;;;;;;1999.90;999.90;;;2.50;99.90;;;;;;5066707;28;20021;-76
2024/01/16 07:47:17;;;;;;;1999.90;999.90;;;2.50;99.90;;;;;;5067575;28;20065;-76
2024/01/16 07:49:43;;;;;;;1999.90;999.90;;;2.50;99.90;;;;;;5073260;28;20115;-74
2024/01/16 07:52:08;;;;;;;1999.90;999.90;;;2.40;99.90;;;;;;5071981;28;20483;-76
2024/01/16 07:54:34;;;;;;;1999.90;999.90;;;2.50;99.90;;;;;;5072411;28;20150;-76
2024/01/16 07:57:00;;;;;;;1999.90;999.90;;;2.40;99.90;;;;;;5068285;28;20062;-74
2024/01/16 07:59:26;;;;;;;1999.90;999.90;;;2.50;99.90;;;;;;5070557;28;20024;-76
2024/01/16 08:01:53;;;;;;;1999.90;999.90;;;2.50;99.90;;;;;;5055045;28;20410;-75
2024/01/16 08:04:19;;;;;;;1999.90;999.90;;;2.50;99.90;;;;;;5070315;28;20037;-76
2024/01/16 08:06:45;;;;;;;1999.90;999.90;;;2.60;99.90;;;;;;5069563;28;20403;-76
2024/01/16 08:09:12;;;;;;;1999.90;999.90;;;2.60;99.90;;;;;;5067550;28;20071;-76
2024/01/16 08:11:39;;;;;;;1999.90;999.90;;;2.60;99.90;;;;;;5070137;28;20543;-76
2024/01/16 08:14:05;;;;;;;1999.90;999.90;;;2.60;99.90;;;;;;5075923;28;20380;-76
2024/01/16 08:16:30;;;;;;;1999.90;999.90;;;2.60;99.90;;;;;;5075151;28;20033;-76
2024/01/16 08:18:56;;;;;;;1999.90;999.90;;;2.70;99.90;;;;;;5071648;28;20035;-76
2024/01/16 08:21:22;;;;;;;1999.90;999.90;;;2.70;99.90;;;;;;5056817;28;20040;-76
2024/01/16 08:23:47;;;;;;;1999.90;999.90;;;2.70;99.90;;;;;;5070106;28;20032;-74
2024/01/16 08:26:13;;;;;;;1999.90;999.90;;;2.80;99.90;;;;;;5069624;28;20036;-76
2024/01/16 08:28:39;;;;;;;1999.90;999.90;;;2.70;99.90;;;;;;5065589;28;20025;-76
2024/01/16 08:31:04;;;;;;;1999.90;999.90;;;2.70;99.90;;;;;;5068573;28;20073;-74
2024/01/16 08:33:31;;;;;;;1999.90;999.90;;;2.90;99.90;;;;;;5069219;28;20028;-74
2024/01/16 08:35:57;;;;;;;1999.90;999.90;;;2.90;99.90;;;;;;5066716;28;20025;-75
2024/01/16 08:38:22;;;;;;;1999.90;999.90;;;2.90;99.90;;;;;;5068387;28;20086;-75
2024/01/16 08:40:48;;;;;;;1999.90;999.90;;;2.90;99.90;;;;;;5059385;28;20032;-73
2024/01/16 08:43:14;;;;;;;1999.90;999.90;;;2.90;99.90;;;;;;5070473;28;20043;-73
2024/01/16 08:45:39;;;;;;;1999.90;999.90;;;2.90;99.90;;;;;;5070320;28;20043;-75
2024/01/16 08:48:05;;;;;;;1999.90;999.90;;;2.90;99.90;;;;;;5061079;28;20025;-74
2024/01/16 08:50:31;;;;;;;1999.90;999.90;;;3.00;99.90;;;;;;5066762;28;20035;-74
2024/01/16 08:52:56;;;;;;;1999.90;999.90;;;3.10;99.90;;;;;;5060249;28;20020;-74
2024/01/16 08:55:22;;;;;;;1999.90;999.90;;;3.00;99.90;;;;;;5068394;28;20081;-74
2024/01/16 08:57:48;;;;;;;1999.90;999.90;;;3.10;99.90;;;;;;5069682;28;20500;-74
2024/01/16 09:00:15;;;;;;;1999.90;999.90;;;3.00;99.90;;;;;;5068760;28;20039;-74
2024/01/16 09:02:40;;;;;;;1999.90;999.90;;;3.10;99.90;;;;;;5068347;28;20028;-74
2024/01/16 09:05:06;;;;;;;1999.90;999.90;;;3.10;99.90;;;;;;5053546;28;20090;-76
2024/01/16 09:07:32;;;;;;;1999.90;999.90;;;3.20;99.90;;;;;;5068998;28;20032;-74
2024/01/16 09:09:58;;;;;;;1999.90;999.90;;;3.20;99.90;;;;;;5051721;28;20032;-74
2024/01/16 09:12:23;;;;;;;1999.90;999.90;;;3.20;99.90;;;;;;5067901;28;20032;-74
2024/01/16 09:14:49;;;;;;;1999.90;999.90;;;3.20;99.90;;;;;;5069479;28;20024;-74
2024/01/16 09:17:15;;;;;;;1999.90;999.90;;;3.20;99.90;;;;;;5070358;28;20494;-74
2024/01/16 09:19:41;;;;;;;1999.90;999.90;;;3.30;99.90;;;;;;5070070;28;20025;-74
2024/01/16 09:22:06;;;;;;;1999.90;999.90;;;3.40;99.90;;;;;;5052268;28;20032;-76
2024/01/16 09:24:32;;;;;;;1999.90;999.90;;;3.50;99.90;;;;;;5070317;28;20517;-75
2024/01/16 09:26:58;;;;;;;1999.90;999.90;;;3.60;99.90;;;;;;5070191;28;20115;-74
2024/01/16 09:29:24;;;;;;;1999.90;999.90;;;3.70;99.90;;;;;;5063015;28;20143;-76
2024/01/16 09:31:50;;;;;;;1999.90;999.90;;;3.70;99.90;;;;;;5069677;28;20047;-76
2024/01/16 09:34:17;;;;;;;1999.90;999.90;;;3.80;99.90;;;;;;5052031;28;20047;-74
2024/01/16 09:36:42;;;;;;;1999.90;999.90;;;3.70;99.90;;;;;;5048514;28;20028;-76
2024/01/16 09:39:08;;;;;;;1999.90;999.90;;;3.70;99.90;;;;;;5070418;28;20028;-74
2024/01/16 09:41:42;;;;;;;1999.90;999.90;;;3.90;99.90;;;;;;5075597;28;20023;-76
2024/01/16 09:44:08;;;;;;;1999.90;999.90;;;4.00;99.90;;;;;;5075025;28;20020;-74
2024/01/16 09:46:37;;;;;;;1999.90;999.90;;;4.00;99.90;;;;;;5069624;28;20075;-76
2024/01/16 09:49:02;;;;;;;1999.90;999.90;;;4.00;99.90;;;;;;5068347;28;20066;-74
2024/01/16 09:51:29;;;;;;;1999.90;999.90;;;4.10;99.90;;;;;;5050202;28;20048;-75
2024/01/16 09:53:54;;;;;;;1999.90;999.90;;;4.20;99.90;;;;;;5069608;28;20029;-74
2024/01/16 09:56:24;;;;;;;1999.90;999.90;;;4.30;99.90;;;;;;5067894;28;20037;-76
2024/01/16 09:58:54;;;;;;;1999.90;999.90;;;4.30;99.90;;;;;;5069658;28;20452;-74
2024/01/16 10:01:21;;;;;;;1999.90;999.90;;;4.40;99.90;;;;;;5068085;28;20541;-74
2024/01/16 10:03:47;;;;;;;1999.90;999.90;;;4.50;99.90;;;;;;5071584;28;20064;-74
2024/01/16 10:06:15;;;;;;;1999.90;999.90;;;4.60;99.90;;;;;;5072903;28;20056;-74
2024/01/16 10:08:41;;;;;;;1999.90;999.90;;;4.70;99.90;;;;;;5075862;28;20028;-76
2024/01/16 10:11:06;;;;;;;1999.90;999.90;;;4.70;99.90;;;;;;5075248;28;20036;-76
2024/01/16 10:13:33;;;;;;;1999.90;999.90;;;4.80;99.90;;;;;;5073271;28;20483;-75
2024/01/16 10:15:59;;;;;;;1999.90;999.90;;;4.90;99.90;;;;;;5072924;28;20028;-74
2024/01/16 10:18:26;;;;;;;1999.90;999.90;;;4.80;99.90;;;;;;5073493;28;20078;-74
2024/01/16 10:20:53;;;;;;;1999.90;999.90;;;4.80;99.90;;;;;;5071824;28;20020;-76
2024/01/16 10:23:32;;;;;;;1999.90;999.90;;;4.90;99.90;;;;;;5072601;28;20037;-76
2024/01/16 10:26:11;;;;;;;1999.90;999.90;;;5.10;99.90;;;;;;5073178;28;20032;-76
2024/01/16 10:28:38;;;;;;;1999.90;999.90;;;5.20;99.90;;;;;;5067943;28;20028;-75
2024/01/16 10:31:09;;;;;;;1999.90;999.90;;;5.20;99.90;;;;;;5037846;28;20036;-76
2024/01/16 10:33:38;;;;;;;1999.90;999.90;;;5.20;99.90;;;;;;5070979;28;20447;-76
2024/01/16 10:36:12;;;;;;;1999.90;999.90;;;5.20;99.90;;;;;;5072395;28;20039;-76
2024/01/16 10:38:43;;;;;;;1999.90;999.90;;;5.30;99.90;;;;;;5072416;28;20089;-74
2024/01/16 10:41:10;;;;;;;1999.90;999.90;;;5.30;99.90;;;;;;5072904;28;20079;-76
2024/01/16 10:43:37;;;;;;;1999.90;999.90;;;5.40;99.90;;;;;;5071737;28;20035;-74
2024/01/16 10:46:16;;;;;;;1999.90;999.90;;;5.40;99.90;;;;;;5072501;28;20040;-74
2024/01/16 10:49:02;;;;;;;1999.90;999.90;;;5.30;99.90;;;;;;5071502;28;20035;-76
2024/01/16 10:51:29;;;;;;;1999.90;999.90;;;5.30;99.90;;;;;;5052228;28;20085;-74
2024/01/16 10:53:59;;;;;;;1999.90;999.90;;;5.10;99.90;;;;;;5072542;28;20023;-76
2024/01/16 10:56:29;;;;;;;1999.90;999.90;;;5.20;99.90;;;;;;5054576;28;20562;-76
2024/01/16 10:59:21;;;;;;;1999.90;999.90;;;5.30;99.90;;;;;;5076249;28;20110;-76
2024/01/16 11:01:51;;;;;;;1999.90;999.90;;;5.40;99.90;;;;;;5035825;28;20071;-76
2024/01/16 11:04:19;;;;;;;1999.90;999.90;;;5.50;99.90;;;;;;5075570;28;20115;-76
2024/01/16 11:06:46;;;;;;;1999.90;999.90;;;5.40;99.90;;;;;;5072625;28;20025;-76
2024/01/16 11:09:16;;;;;;;1999.90;999.90;;;5.40;99.90;;;;;;5071682;28;20499;-74
2024/01/16 11:11:45;;;;;;;1999.90;999.90;;;5.40;99.90;;;;;;5071769;28;20526;-75
2024/01/16 11:14:12;;;;;;;1999.90;999.90;;;5.30;99.90;;;;;;5053067;28;20020;-76
2024/01/16 11:16:40;;;;;;;1999.90;999.90;;;5.30;99.90;;;;;;5072123;28;20039;-75
2024/01/16 11:19:08;;;;;;;1999.90;999.90;;;5.20;99.90;;;;;;5070408;28;20387;-74
2024/01/16 11:21:36;;;;;;;1999.90;999.90;;;5.30;99.90;;;;;;5070697;28;20106;-75
2024/01/16 11:24:01;;;;;;;1999.90;999.90;;;5.30;99.90;;;;;;5071532;28;20021;-76
2024/01/16 11:26:32;;;;;;;1999.90;999.90;;;5.30;99.90;;;;;;5071698;28;20043;-74
2024/01/16 11:28:59;;;;;;;1999.90;999.90;;;5.30;99.90;;;;;;5062292;28;20073;-74
2024/01/16 11:31:34;;;;;;;1999.90;999.90;;;5.20;99.90;;;;;;5069466;28;20035;-74
2024/01/16 11:34:01;;;;;;;1999.90;999.90;;;5.40;99.90;;;;;;5071742;28;20508;-75
2024/01/16 11:36:51;;;;;;;1999.90;999.90;;;5.50;99.90;;;;;;5071481;28;20398;-76
2024/01/16 11:39:19;;;;;;;1999.90;999.90;;;5.40;99.90;;;;;;5071823;28;20558;-76
2024/01/16 11:41:51;;;;;;;1999.90;999.90;;;5.50;99.90;;;;;;5071653;28;20442;-74
2024/01/16 11:44:54;;;;;;;1999.90;999.90;;;5.60;99.90;;;;;;5071552;28;20104;-75
2024/01/16 11:47:21;;;;;;;1999.90;999.90;;;5.80;99.90;;;;;;5021188;28;20402;-74
2024/01/16 11:50:11;;;;;;;1999.90;999.90;;;5.80;99.90;;;;;;5072382;28;20059;-74
2024/01/16 11:52:44;;;;;;;1999.90;999.90;;;5.80;99.90;;;;;;5062955;28;20032;-76
2024/01/16 11:55:30;;;;;;;1999.90;999.90;;;6.00;99.90;;;;;;5074852;28;20108;-74
2024/01/16 11:58:37;;;;;;;1999.90;999.90;;;6.20;99.90;;;;;;5062796;28;20079;-76
2024/01/16 12:01:05;;;;;;;1999.90;999.90;;;6.20;99.90;;;;;;5070818;28;20074;-76
2024/01/16 12:03:31;;;;;;;1999.90;999.90;;;6.50;99.90;;;;;;5071081;28;20036;-76
2024/01/16 12:06:00;;;;;;;1999.90;999.90;;;6.70;99.90;;;;;;5072935;28;20503;-75